THA601 ZHCC-ZHHH
Flight info
| Callsign | THA601 |
|---|---|
| Flight time | 0h 53m |
| Altitude | 36100 |
| Route | DUD9Z DUDBI W37 ENLAB |
| Aircraft | A333/H-SDE3GHIJ2J3J5M1RVWXY/LB2D1 |
Departure
| Time | 2026-04-21 13:23 |
|---|---|
| Airport | Zhengzhou Xinzheng International Airport (ZHCC) |
Arrival
| Time | 2026-04-21 14:17 |
|---|---|
| Airport | Wuhan Tianhe International Airport (ZHHH) |
| Time | Latitude | Longitude | Altitude | Speed | Heading |
|---|---|---|---|---|---|
| 2026-04-21 13:12 | 34.53229 | 113.85042 | 509 ft | 0 kts | 232° |
| 2026-04-21 13:16 | 34.53235 | 113.85052 | 509 ft | 4 kts | 238° |
| 2026-04-21 13:16 | 34.53244 | 113.85080 | 481 ft | 4 kts | 275° |
| 2026-04-21 13:16 | 34.53234 | 113.85107 | 509 ft | 4 kts | 321° |
| 2026-04-21 13:17 | 34.53211 | 113.85122 | 509 ft | 4 kts | 349° |
| 2026-04-21 13:17 | 34.53187 | 113.85122 | 510 ft | 2 kts | 22° |
| 2026-04-21 13:17 | 34.53186 | 113.85122 | 509 ft | 0 kts | 22° |
| 2026-04-21 13:19 | 34.53188 | 113.85123 | 510 ft | 2 kts | 22° |
| 2026-04-21 13:19 | 34.53208 | 113.85133 | 509 ft | 4 kts | 22° |
| 2026-04-21 13:19 | 34.53257 | 113.85158 | 508 ft | 8 kts | 25° |
| 2026-04-21 13:19 | 34.53313 | 113.85218 | 508 ft | 12 kts | 46° |
| 2026-04-21 13:20 | 34.53334 | 113.85273 | 508 ft | 9 kts | 85° |
| 2026-04-21 13:20 | 34.53313 | 113.85359 | 508 ft | 14 kts | 103° |
| 2026-04-21 13:20 | 34.53267 | 113.85528 | 508 ft | 28 kts | 111° |
| 2026-04-21 13:20 | 34.53182 | 113.85781 | 507 ft | 34 kts | 112° |
| 2026-04-21 13:21 | 34.53094 | 113.86044 | 507 ft | 34 kts | 112° |
| 2026-04-21 13:21 | 34.53005 | 113.86311 | 507 ft | 35 kts | 112° |
| 2026-04-21 13:21 | 34.52917 | 113.86564 | 506 ft | 30 kts | 114° |
| 2026-04-21 13:21 | 34.52833 | 113.86809 | 506 ft | 38 kts | 112° |
| 2026-04-21 13:22 | 34.52725 | 113.87120 | 506 ft | 40 kts | 112° |
| 2026-04-21 13:22 | 34.52663 | 113.87357 | 506 ft | 16 kts | 80° |
| 2026-04-21 13:22 | 34.52720 | 113.87418 | 503 ft | 19 kts | 27° |
| 2026-04-21 13:22 | 34.52826 | 113.87367 | 499 ft | 23 kts | 300° |
| 2026-04-21 13:23 | 34.52971 | 113.86956 | 486 ft | 87 kts | 292° |
| 2026-04-21 13:23 | 34.53281 | 113.86039 | 510 ft | 146 kts | 293° |
| 2026-04-21 13:23 | 34.52869 | 113.85035 | 1027 ft | 171 kts | 194° |
| 2026-04-21 13:23 | 34.51928 | 113.84071 | 1748 ft | 198 kts | 252° |
| 2026-04-21 13:24 | 34.52036 | 113.82442 | 2422 ft | 202 kts | 302° |
| 2026-04-21 13:24 | 34.52985 | 113.81175 | 3228 ft | 207 kts | 318° |
| 2026-04-21 13:24 | 34.53702 | 113.79631 | 3994 ft | 220 kts | 279° |
| 2026-04-21 13:24 | 34.53412 | 113.77827 | 4889 ft | 223 kts | 239° |
| 2026-04-21 13:25 | 34.52548 | 113.76276 | 5926 ft | 222 kts | 233° |
| 2026-04-21 13:25 | 34.51696 | 113.74724 | 6995 ft | 220 kts | 239° |
| 2026-04-21 13:25 | 34.50937 | 113.73127 | 8093 ft | 216 kts | 243° |
| 2026-04-21 13:25 | 34.50256 | 113.71512 | 9172 ft | 215 kts | 245° |
| 2026-04-21 13:26 | 34.49614 | 113.69866 | 10150 ft | 216 kts | 246° |
| 2026-04-21 13:26 | 34.48992 | 113.68194 | 11028 ft | 219 kts | 247° |
| 2026-04-21 13:26 | 34.48386 | 113.66518 | 11839 ft | 222 kts | 248° |
| 2026-04-21 13:26 | 34.47761 | 113.64768 | 12703 ft | 225 kts | 248° |
| 2026-04-21 13:27 | 34.47142 | 113.63021 | 13521 ft | 227 kts | 248° |
| 2026-04-21 13:27 | 34.46515 | 113.61248 | 14288 ft | 230 kts | 248° |
| 2026-04-21 13:27 | 34.45891 | 113.59482 | 15004 ft | 232 kts | 248° |
| 2026-04-21 13:27 | 34.45254 | 113.57679 | 15724 ft | 234 kts | 248° |
| 2026-04-21 13:28 | 34.44451 | 113.55926 | 16432 ft | 238 kts | 234° |
| 2026-04-21 13:28 | 34.43176 | 113.54613 | 17128 ft | 246 kts | 213° |
| 2026-04-21 13:28 | 34.41636 | 113.53713 | 17839 ft | 251 kts | 208° |
| 2026-04-21 13:28 | 34.40017 | 113.52889 | 18539 ft | 254 kts | 208° |
| 2026-04-21 13:29 | 34.38911 | 113.52334 | 18937 ft | 256 kts | 208° |
| 2026-04-21 13:29 | 34.36686 | 113.51208 | 19745 ft | 261 kts | 209° |
| 2026-04-21 13:29 | 34.35005 | 113.50354 | 20351 ft | 263 kts | 209° |
| 2026-04-21 13:29 | 34.33302 | 113.49481 | 20724 ft | 276 kts | 209° |
| 2026-04-21 13:30 | 34.31530 | 113.48573 | 21357 ft | 276 kts | 209° |
| 2026-04-21 13:30 | 34.29764 | 113.47669 | 22042 ft | 275 kts | 210° |
| 2026-04-21 13:30 | 34.28573 | 113.47059 | 22478 ft | 276 kts | 210° |
| 2026-04-21 13:30 | 34.26770 | 113.46208 | 23059 ft | 282 kts | 205° |
| 2026-04-21 13:31 | 34.24839 | 113.45627 | 23612 ft | 291 kts | 196° |
| 2026-04-21 13:31 | 34.22788 | 113.45448 | 24069 ft | 301 kts | 186° |
| 2026-04-21 13:31 | 34.20681 | 113.45735 | 24557 ft | 310 kts | 175° |
| 2026-04-21 13:31 | 34.18592 | 113.46491 | 25040 ft | 317 kts | 166° |
| 2026-04-21 13:32 | 34.16532 | 113.47472 | 25538 ft | 320 kts | 165° |
| 2026-04-21 13:32 | 34.14465 | 113.48497 | 26017 ft | 322 kts | 165° |
| 2026-04-21 13:32 | 34.12388 | 113.49524 | 26502 ft | 323 kts | 165° |
| 2026-04-21 13:32 | 34.10296 | 113.50550 | 26962 ft | 325 kts | 165° |
| 2026-04-21 13:33 | 34.08192 | 113.51576 | 27437 ft | 327 kts | 165° |
| 2026-04-21 13:33 | 34.06076 | 113.52603 | 27909 ft | 329 kts | 165° |
| 2026-04-21 13:33 | 34.03943 | 113.53637 | 28366 ft | 331 kts | 165° |
| 2026-04-21 13:33 | 34.01799 | 113.54674 | 28827 ft | 333 kts | 165° |
| 2026-04-21 13:34 | 33.99641 | 113.55717 | 29289 ft | 335 kts | 166° |
| 2026-04-21 13:34 | 33.97498 | 113.56751 | 29736 ft | 337 kts | 166° |
| 2026-04-21 13:34 | 33.95313 | 113.57806 | 30169 ft | 340 kts | 166° |
| 2026-04-21 13:34 | 33.93110 | 113.58868 | 30543 ft | 342 kts | 166° |
| 2026-04-21 13:35 | 33.90897 | 113.59935 | 30921 ft | 344 kts | 166° |
| 2026-04-21 13:35 | 33.88669 | 113.61008 | 31279 ft | 345 kts | 166° |
| 2026-04-21 13:35 | 33.86436 | 113.62083 | 31676 ft | 347 kts | 166° |
| 2026-04-21 13:35 | 33.84189 | 113.63165 | 32035 ft | 349 kts | 166° |
| 2026-04-21 13:36 | 33.81930 | 113.64251 | 32392 ft | 351 kts | 166° |
| 2026-04-21 13:36 | 33.79659 | 113.65342 | 32753 ft | 353 kts | 166° |
| 2026-04-21 13:36 | 33.77374 | 113.66439 | 33093 ft | 355 kts | 166° |
| 2026-04-21 13:36 | 33.75075 | 113.67543 | 33437 ft | 357 kts | 166° |
| 2026-04-21 13:37 | 33.72772 | 113.68676 | 33773 ft | 360 kts | 163° |
| 2026-04-21 13:37 | 33.70512 | 113.70044 | 34097 ft | 367 kts | 157° |
| 2026-04-21 13:37 | 33.68361 | 113.71762 | 34364 ft | 376 kts | 149° |
| 2026-04-21 13:37 | 33.66367 | 113.73849 | 34626 ft | 385 kts | 142° |
| 2026-04-21 13:38 | 33.64582 | 113.76276 | 34880 ft | 392 kts | 135° |
| 2026-04-21 13:38 | 33.62914 | 113.78878 | 35171 ft | 395 kts | 134° |
| 2026-04-21 13:38 | 33.61262 | 113.81516 | 35402 ft | 396 kts | 134° |
| 2026-04-21 13:38 | 33.59605 | 113.84160 | 35703 ft | 397 kts | 134° |
| 2026-04-21 13:39 | 33.57938 | 113.86808 | 35942 ft | 399 kts | 134° |
| 2026-04-21 13:39 | 33.56255 | 113.89468 | 36118 ft | 402 kts | 134° |
| 2026-04-21 13:39 | 33.52796 | 113.94912 | 36142 ft | 419 kts | 134° |
| 2026-04-21 13:40 | 33.49185 | 114.00585 | 36138 ft | 437 kts | 134° |
| 2026-04-21 13:40 | 33.45429 | 114.06480 | 36138 ft | 454 kts | 134° |
| 2026-04-21 13:41 | 33.41526 | 114.12597 | 36134 ft | 471 kts | 133° |
| 2026-04-21 13:41 | 33.37543 | 114.18992 | 36132 ft | 491 kts | 128° |
| 2026-04-21 13:42 | 33.35907 | 114.22631 | 36132 ft | 502 kts | 118° |
| 2026-04-21 13:42 | 33.34628 | 114.26476 | 36128 ft | 505 kts | 115° |
| 2026-04-21 13:42 | 33.32202 | 114.34358 | 36128 ft | 505 kts | 115° |
| 2026-04-21 13:43 | 33.29768 | 114.42230 | 36127 ft | 504 kts | 115° |
| 2026-04-21 13:43 | 33.27320 | 114.50084 | 36113 ft | 504 kts | 115° |
| 2026-04-21 13:44 | 33.24736 | 114.57848 | 36117 ft | 499 kts | 122° |
| 2026-04-21 13:44 | 33.22940 | 114.61346 | 36110 ft | 491 kts | 133° |
| 2026-04-21 13:44 | 33.20687 | 114.64347 | 36118 ft | 481 kts | 143° |
| 2026-04-21 13:45 | 33.18067 | 114.66767 | 36101 ft | 472 kts | 154° |
| 2026-04-21 13:45 | 33.15187 | 114.68564 | 36114 ft | 465 kts | 164° |
| 2026-04-21 13:45 | 33.09014 | 114.70234 | 36110 ft | 449 kts | 183° |
| 2026-04-21 13:46 | 33.02818 | 114.69950 | 36110 ft | 444 kts | 190° |
| 2026-04-21 13:46 | 32.96665 | 114.69291 | 36111 ft | 444 kts | 191° |
| 2026-04-21 13:47 | 32.90503 | 114.68612 | 36106 ft | 447 kts | 190° |
| 2026-04-21 13:47 | 32.84287 | 114.67982 | 36101 ft | 449 kts | 189° |
| 2026-04-21 13:48 | 32.78051 | 114.67392 | 36101 ft | 449 kts | 189° |
| 2026-04-21 13:48 | 32.71814 | 114.66810 | 36102 ft | 449 kts | 189° |
| 2026-04-21 13:49 | 32.68700 | 114.66518 | 35956 ft | 449 kts | 189° |
| 2026-04-21 13:49 | 32.65589 | 114.66227 | 35466 ft | 447 kts | 189° |
| 2026-04-21 13:49 | 32.62520 | 114.65942 | 35215 ft | 438 kts | 189° |
| 2026-04-21 13:49 | 32.59519 | 114.65665 | 35026 ft | 428 kts | 189° |
| 2026-04-21 13:50 | 32.56581 | 114.65394 | 34843 ft | 418 kts | 189° |
| 2026-04-21 13:50 | 32.53750 | 114.65131 | 34681 ft | 409 kts | 189° |
| 2026-04-21 13:50 | 32.50903 | 114.64865 | 34488 ft | 400 kts | 190° |
| 2026-04-21 13:50 | 32.48198 | 114.64612 | 34337 ft | 391 kts | 190° |
| 2026-04-21 13:51 | 32.45498 | 114.64358 | 33945 ft | 389 kts | 190° |
| 2026-04-21 13:51 | 32.42788 | 114.64097 | 33265 ft | 393 kts | 190° |
| 2026-04-21 13:51 | 32.40049 | 114.63832 | 32584 ft | 398 kts | 190° |
| 2026-04-21 13:51 | 32.37277 | 114.63563 | 31913 ft | 401 kts | 190° |
| 2026-04-21 13:52 | 32.34479 | 114.63289 | 31266 ft | 405 kts | 190° |
| 2026-04-21 13:52 | 32.31660 | 114.63014 | 30629 ft | 408 kts | 190° |
| 2026-04-21 13:52 | 32.28818 | 114.62737 | 29993 ft | 411 kts | 190° |
| 2026-04-21 13:52 | 32.25962 | 114.62460 | 29265 ft | 413 kts | 190° |
| 2026-04-21 13:53 | 32.23094 | 114.62181 | 28564 ft | 414 kts | 190° |
| 2026-04-21 13:53 | 32.20214 | 114.61901 | 27850 ft | 416 kts | 190° |
| 2026-04-21 13:53 | 32.17331 | 114.61622 | 27181 ft | 416 kts | 190° |
| 2026-04-21 13:53 | 32.14409 | 114.61336 | 26526 ft | 427 kts | 190° |
| 2026-04-21 13:54 | 32.11414 | 114.61042 | 25879 ft | 435 kts | 190° |
| 2026-04-21 13:54 | 32.08392 | 114.60750 | 25249 ft | 435 kts | 190° |
| 2026-04-21 13:54 | 32.05383 | 114.60462 | 24629 ft | 433 kts | 190° |
| 2026-04-21 13:54 | 32.02396 | 114.60175 | 24029 ft | 429 kts | 190° |
| 2026-04-21 13:55 | 31.99423 | 114.59889 | 23414 ft | 426 kts | 190° |
| 2026-04-21 13:55 | 31.96482 | 114.59606 | 22687 ft | 423 kts | 190° |
| 2026-04-21 13:55 | 31.93561 | 114.59324 | 22009 ft | 419 kts | 190° |
| 2026-04-21 13:55 | 31.90665 | 114.59045 | 21327 ft | 416 kts | 190° |
| 2026-04-21 13:56 | 31.87792 | 114.58768 | 20668 ft | 412 kts | 190° |
| 2026-04-21 13:56 | 31.84951 | 114.58495 | 20026 ft | 408 kts | 190° |
| 2026-04-21 13:56 | 31.82132 | 114.58223 | 19428 ft | 404 kts | 190° |
| 2026-04-21 13:56 | 31.79355 | 114.57956 | 18979 ft | 397 kts | 190° |
| 2026-04-21 13:57 | 31.76626 | 114.57694 | 18569 ft | 391 kts | 190° |
| 2026-04-21 13:57 | 31.73917 | 114.57433 | 18525 ft | 391 kts | 190° |
| 2026-04-21 13:57 | 31.71206 | 114.57170 | 18509 ft | 391 kts | 190° |
| 2026-04-21 13:57 | 31.68495 | 114.56907 | 18507 ft | 391 kts | 190° |
| 2026-04-21 13:58 | 31.65783 | 114.56648 | 18508 ft | 391 kts | 190° |
| 2026-04-21 13:58 | 31.63074 | 114.56387 | 18503 ft | 391 kts | 190° |
| 2026-04-21 13:58 | 31.60364 | 114.56125 | 18498 ft | 391 kts | 190° |
| 2026-04-21 13:58 | 31.57653 | 114.55862 | 18490 ft | 391 kts | 190° |
| 2026-04-21 13:59 | 31.54943 | 114.55599 | 18503 ft | 391 kts | 190° |
| 2026-04-21 13:59 | 31.52230 | 114.55340 | 18491 ft | 391 kts | 190° |
| 2026-04-21 13:59 | 31.49519 | 114.55083 | 18488 ft | 391 kts | 190° |
| 2026-04-21 13:59 | 31.46841 | 114.54828 | 18489 ft | 391 kts | 190° |
| 2026-04-21 14:00 | 31.44131 | 114.54570 | 18488 ft | 391 kts | 190° |
| 2026-04-21 14:00 | 31.41419 | 114.54311 | 18479 ft | 391 kts | 190° |
| 2026-04-21 14:00 | 31.38711 | 114.54053 | 18480 ft | 391 kts | 190° |
| 2026-04-21 14:00 | 31.35999 | 114.53795 | 18480 ft | 391 kts | 190° |
| 2026-04-21 14:01 | 31.33290 | 114.53536 | 18480 ft | 391 kts | 190° |
| 2026-04-21 14:01 | 31.30578 | 114.53278 | 18480 ft | 391 kts | 190° |
| 2026-04-21 14:01 | 31.27874 | 114.52978 | 18479 ft | 389 kts | 193° |
| 2026-04-21 14:01 | 31.25269 | 114.52255 | 18480 ft | 381 kts | 205° |
| 2026-04-21 14:02 | 31.22914 | 114.50918 | 18462 ft | 372 kts | 217° |
| 2026-04-21 14:02 | 31.20878 | 114.49108 | 18461 ft | 366 kts | 224° |
| 2026-04-21 14:02 | 31.18963 | 114.47160 | 18462 ft | 365 kts | 225° |
| 2026-04-21 14:03 | 31.15170 | 114.43235 | 18187 ft | 363 kts | 225° |
| 2026-04-21 14:03 | 31.13269 | 114.41280 | 17415 ft | 364 kts | 225° |
| 2026-04-21 14:03 | 31.11380 | 114.39345 | 16813 ft | 359 kts | 225° |
| 2026-04-21 14:03 | 31.09509 | 114.37433 | 16186 ft | 356 kts | 225° |
| 2026-04-21 14:04 | 31.07652 | 114.35536 | 15559 ft | 353 kts | 225° |
| 2026-04-21 14:04 | 31.05813 | 114.33660 | 14940 ft | 351 kts | 224° |
| 2026-04-21 14:04 | 31.03981 | 114.31792 | 14311 ft | 348 kts | 224° |
| 2026-04-21 14:04 | 31.02163 | 114.29939 | 13682 ft | 346 kts | 224° |
| 2026-04-21 14:05 | 31.00362 | 114.28105 | 13016 ft | 343 kts | 224° |
| 2026-04-21 14:05 | 30.98569 | 114.26281 | 12349 ft | 341 kts | 224° |
| 2026-04-21 14:05 | 30.96789 | 114.24471 | 11687 ft | 338 kts | 224° |
| 2026-04-21 14:05 | 30.95022 | 114.22675 | 11047 ft | 336 kts | 224° |
| 2026-04-21 14:06 | 30.93265 | 114.20889 | 10388 ft | 335 kts | 224° |
| 2026-04-21 14:06 | 30.91515 | 114.19112 | 9758 ft | 333 kts | 223° |
| 2026-04-21 14:06 | 30.89798 | 114.17369 | 9056 ft | 331 kts | 223° |
| 2026-04-21 14:06 | 30.88071 | 114.15616 | 8389 ft | 329 kts | 223° |
| 2026-04-21 14:07 | 30.86366 | 114.13889 | 8005 ft | 318 kts | 223° |
| 2026-04-21 14:07 | 30.84735 | 114.12238 | 7770 ft | 304 kts | 223° |
| 2026-04-21 14:07 | 30.83177 | 114.10659 | 7568 ft | 290 kts | 223° |
| 2026-04-21 14:07 | 30.81688 | 114.09153 | 7376 ft | 278 kts | 223° |
| 2026-04-21 14:08 | 30.80261 | 114.07710 | 7227 ft | 266 kts | 223° |
| 2026-04-21 14:08 | 30.78891 | 114.06324 | 7020 ft | 258 kts | 223° |
| 2026-04-21 14:08 | 30.77542 | 114.04959 | 6669 ft | 257 kts | 222° |
| 2026-04-21 14:08 | 30.76201 | 114.03602 | 6334 ft | 254 kts | 222° |
| 2026-04-21 14:09 | 30.74875 | 114.02261 | 6055 ft | 251 kts | 222° |
| 2026-04-21 14:09 | 30.73557 | 114.00930 | 6003 ft | 252 kts | 222° |
| 2026-04-21 14:09 | 30.72235 | 113.99595 | 6003 ft | 252 kts | 222° |
| 2026-04-21 14:09 | 30.70915 | 113.98262 | 6003 ft | 251 kts | 222° |
| 2026-04-21 14:10 | 30.69596 | 113.96933 | 6007 ft | 251 kts | 222° |
| 2026-04-21 14:10 | 30.68275 | 113.95606 | 6008 ft | 251 kts | 221° |
| 2026-04-21 14:10 | 30.66825 | 113.94464 | 6010 ft | 254 kts | 207° |
| 2026-04-21 14:10 | 30.65125 | 113.93961 | 5872 ft | 254 kts | 185° |
| 2026-04-21 14:11 | 30.63380 | 113.94306 | 5520 ft | 259 kts | 161° |
| 2026-04-21 14:11 | 30.61808 | 113.95357 | 5108 ft | 263 kts | 147° |
| 2026-04-21 14:11 | 30.60323 | 113.96598 | 4752 ft | 263 kts | 147° |
| 2026-04-21 14:11 | 30.58851 | 113.97845 | 4453 ft | 260 kts | 142° |
| 2026-04-21 14:12 | 30.57780 | 113.99498 | 4190 ft | 257 kts | 108° |
| 2026-04-21 14:12 | 30.57733 | 114.01494 | 4024 ft | 246 kts | 71° |
| 2026-04-21 14:12 | 30.58467 | 114.03209 | 4001 ft | 231 kts | 52° |
| 2026-04-21 14:12 | 30.59536 | 114.04525 | 4009 ft | 226 kts | 40° |
| 2026-04-21 14:13 | 30.60734 | 114.05705 | 3998 ft | 226 kts | 38° |
| 2026-04-21 14:13 | 30.61932 | 114.06897 | 3817 ft | 226 kts | 39° |
| 2026-04-21 14:13 | 30.63118 | 114.08113 | 3497 ft | 229 kts | 40° |
| 2026-04-21 14:13 | 30.64320 | 114.09350 | 3154 ft | 232 kts | 40° |
| 2026-04-21 14:14 | 30.65536 | 114.10594 | 2810 ft | 233 kts | 40° |
| 2026-04-21 14:14 | 30.66752 | 114.11836 | 2496 ft | 232 kts | 40° |
| 2026-04-21 14:14 | 30.67956 | 114.13072 | 2176 ft | 230 kts | 39° |
| 2026-04-21 14:14 | 30.69144 | 114.14289 | 1871 ft | 224 kts | 40° |
| 2026-04-21 14:15 | 30.70276 | 114.15448 | 1573 ft | 210 kts | 39° |
| 2026-04-21 14:15 | 30.71343 | 114.16540 | 1293 ft | 199 kts | 38° |
| 2026-04-21 14:15 | 30.72363 | 114.17585 | 1038 ft | 193 kts | 38° |
| 2026-04-21 14:15 | 30.73372 | 114.18616 | 793 ft | 194 kts | 39° |
| 2026-04-21 14:16 | 30.74369 | 114.19639 | 533 ft | 193 kts | 40° |
| 2026-04-21 14:16 | 30.75373 | 114.20669 | 276 ft | 192 kts | 40° |
| 2026-04-21 14:16 | 30.76354 | 114.21675 | 109 ft | 170 kts | 41° |
| 2026-04-21 14:16 | 30.77100 | 114.22440 | 110 ft | 120 kts | 41° |
| 2026-04-21 14:17 | 30.77636 | 114.22989 | 113 ft | 87 kts | 41° |
| 2026-04-21 14:17 | 30.77998 | 114.23358 | 109 ft | 36 kts | 34° |
| 2026-04-21 14:17 | 30.78080 | 114.23364 | 110 ft | 15 kts | 336° |
| 2026-04-21 14:17 | 30.78134 | 114.23319 | 111 ft | 9 kts | 313° |
| 2026-04-21 14:18 | 30.78149 | 114.23294 | 109 ft | 4 kts | 300° |
| 2026-04-21 14:18 | 30.78171 | 114.23250 | 110 ft | 10 kts | 300° |
| 2026-04-21 14:18 | 30.78167 | 114.23134 | 109 ft | 20 kts | 234° |
| 2026-04-21 14:18 | 30.78047 | 114.23013 | 109 ft | 23 kts | 219° |
| 2026-04-21 14:19 | 30.77928 | 114.22891 | 109 ft | 22 kts | 222° |
| 2026-04-21 14:19 | 30.77815 | 114.22774 | 111 ft | 22 kts | 221° |
| 2026-04-21 14:19 | 30.77698 | 114.22657 | 111 ft | 23 kts | 221° |
| 2026-04-21 14:19 | 30.77578 | 114.22535 | 108 ft | 23 kts | 221° |
| 2026-04-21 14:20 | 30.77453 | 114.22407 | 109 ft | 24 kts | 221° |
| 2026-04-21 14:20 | 30.77338 | 114.22288 | 109 ft | 0 kts | 221° |
| 2026-04-21 14:20 | 30.77333 | 114.22283 | 110 ft | 2 kts | 221° |
| 2026-04-21 14:20 | 30.77332 | 114.22282 | 110 ft | 0 kts | 221° |